الصفحة الرئيسية
METAR-TAF:

METAR-TAF

مطار :

مطار غات

غات, ليبيا

دائرة عرض: 25-08N, خط طول: 010-09E, ارتفاع: 699 متر

METAR: مفقودة

زمن: 20:54 (18:54 UTC)

توقعات

تاريخ ووقت الإصدار 13ساعات و 54 دقيقة قبل الساعة 05:00UTC
التوقعات صالحة من21 الساعة 06 UTC إلى 22 الساعة 06 UTC
ريح 2 عقدةمن اتجاهات متغيرة
الرؤية 10 كم أو أكثر
الغيوم لا تقل 1500 م ولا وجود لمزنة ركامية السحاب الأسود
أصبح
من 21 الساعة 10 UTC إلى 21 الساعة 12 UTC
ريح 10 عقدة من الجنوب الغربي
أصبح
من 21 الساعة 18 UTC إلى 21 الساعة 20 UTC
ريح 10 عقدة من الشمال

TAF: HLGT 210500Z 2106/2206 VRB02KT CAVOK BECMG 2110/2112 23010KT BECMG 2118/2120 36010KT

أرصاد الطقس والتوقعات من أكثر من 4000 مطار (تقارير الطقس للمطار METAR والتنبؤ بالطقس بالمطارTAF).

المحطات المتاحة هي النقط الصفراء والحمراء على الخريطة.

حرك المؤشر فوق النقطة لمعرفة اسم المحطة.

ثم انقر لمعرفة أرصاد وتوقعات الطقس.

لتغيير الخارطة: اضغط على الأزرار الخضراء مع رمز الصليب الأسود للتكبير. على الزر الأخضر مع شرطة للتصغير، أو على الأسهم الخضراء للخرائط المجاورة.


METAR-TAF: